Time;durP1;ratioP1;P1;durP2;ratioP2;P2;SDS_P1;SDS_P2;PMS_P1;PMS_P2;Temp;Humidity;BMP_temperature;BMP_pressure;BME280_temperature;BME280_humidity;BME280_pressure;Samples;Min_cycle;Max_cycle;Signal;HPM_P1;HPM_P2
2024/02/27 00:01:56;;;;;;;11.65;8.05;;;;;;;3.01;92.74;98434.09;5029443;28;20057;-83
2024/02/27 00:04:22;;;;;;;11.40;7.45;;;;;;;3.00;92.96;98406.13;5036594;28;20070;-84
2024/02/27 00:06:49;;;;;;;10.05;7.47;;;;;;;2.93;92.67;98405.34;5035060;28;20731;-83
2024/02/27 00:09:18;;;;;;;8.90;6.55;;;;;;;3.03;92.80;98421.53;5034326;28;20041;-83
2024/02/27 00:11:44;;;;;;;9.70;6.32;;;;;;;3.41;91.61;98439.13;5010304;28;20080;-86
2024/02/27 00:14:10;;;;;;;9.98;7.28;;;;;;;2.60;92.98;98417.84;5031825;28;20025;-85
2024/02/27 00:16:35;;;;;;;7.20;6.38;;;;;;;2.70;94.37;98439.31;5034742;28;20029;-85
2024/02/27 00:19:03;;;;;;;9.25;7.18;;;;;;;2.69;94.29;98406.06;5031958;28;20042;-85
2024/02/27 00:21:28;;;;;;;7.95;7.15;;;;;;;2.76;93.59;98427.13;5011752;28;20029;-83
2024/02/27 00:23:53;;;;;;;10.98;7.53;;;;;;;2.74;94.32;98439.69;5021670;28;20021;-83
2024/02/27 00:26:19;;;;;;;8.95;6.00;;;;;;;2.84;94.61;98440.88;5018943;28;20063;-84
2024/02/27 00:28:44;;;;;;;9.02;6.45;;;;;;;2.47;94.73;98436.31;5029676;28;20136;-83
2024/02/27 00:31:09;;;;;;;8.70;7.30;;;;;;;2.63;94.99;98445.59;5016348;28;20030;-83
2024/02/27 00:33:35;;;;;;;10.13;7.82;;;;;;;2.74;95.04;98450.22;5014350;28;20064;-82
2024/02/27 00:36:01;;;;;;;9.27;6.88;;;;;;;2.38;95.37;98424.41;5018548;28;20497;-83
2024/02/27 00:38:27;;;;;;;9.52;7.00;;;;;;;2.67;96.17;98452.88;5036087;28;20036;-83
2024/02/27 00:40:52;;;;;;;10.63;7.30;;;;;;;2.30;95.79;98414.09;4999105;28;20033;-84
2024/02/27 00:43:18;;;;;;;7.70;6.90;;;;;;;2.62;95.65;98450.06;5035045;28;20112;-83
2024/02/27 00:45:43;;;;;;;8.80;6.45;;;;;;;2.64;95.25;98447.25;5030145;28;20061;-83
2024/02/27 00:48:09;;;;;;;8.35;7.03;;;;;;;2.56;95.71;98440.34;5025562;28;20079;-83
2024/02/27 00:50:34;;;;;;;10.65;6.80;;;;;;;2.59;93.44;98415.44;5010324;28;20639;-84
2024/02/27 00:53:00;;;;;;;9.13;6.68;;;;;;;2.81;94.61;98449.19;5018385;28;20048;-83
2024/02/27 00:55:25;;;;;;;13.13;8.98;;;;;;;2.48;95.37;98450.31;4996953;28;20037;-82
2024/02/27 00:57:51;;;;;;;12.82;8.32;;;;;;;2.53;95.41;98445.25;5032567;28;20033;-84
2024/02/27 01:00:18;;;;;;;16.88;9.27;;;;;;;2.63;95.83;98441.16;5028484;28;20092;-83
2024/02/27 01:02:43;;;;;;;13.15;8.77;;;;;;;2.92;94.69;98430.09;5032042;28;20037;-83
2024/02/27 01:05:09;;;;;;;14.90;8.32;;;;;;;2.62;94.57;98434.25;5029664;28;20402;-83
2024/02/27 01:07:36;;;;;;;10.90;7.68;;;;;;;2.51;95.13;98424.34;5014706;28;20038;-83
2024/02/27 01:10:03;;;;;;;13.52;8.82;;;;;;;2.90;95.04;98437.41;5024505;28;20021;-83
2024/02/27 01:12:29;;;;;;;12.73;8.77;;;;;;;2.16;96.03;98418.56;5030445;28;20044;-83
2024/02/27 01:14:55;;;;;;;13.57;7.90;;;;;;;2.55;95.59;98451.09;5031976;28;20041;-82
2024/02/27 01:17:20;;;;;;;12.32;8.48;;;;;;;2.24;96.76;98447.34;5033806;28;20057;-83
2024/02/27 01:19:45;;;;;;;10.63;7.63;;;;;;;2.81;96.17;98443.13;5032581;28;20033;-83
2024/02/27 01:22:12;;;;;;;16.92;9.18;;;;;;;2.35;95.29;98421.38;5034252;28;20025;-83
2024/02/27 01:24:38;;;;;;;11.93;8.07;;;;;;;2.48;95.85;98410.81;5029724;28;20061;-83
2024/02/27 01:27:04;;;;;;;13.07;9.52;;;;;;;2.32;95.22;98437.56;5034538;28;20021;-83
2024/02/27 01:29:29;;;;;;;12.98;8.77;;;;;;;2.56;95.67;98432.44;5031044;28;20031;-83
2024/02/27 01:31:55;;;;;;;12.70;9.52;;;;;;;2.64;94.67;98458.59;5010544;28;20124;-83
2024/02/27 01:34:20;;;;;;;11.85;8.80;;;;;;;2.58;94.69;98466.50;5032287;28;21822;-82
2024/02/27 01:36:47;;;;;;;13.73;9.13;;;;;;;2.29;94.89;98439.59;5030875;28;20099;-82
2024/02/27 01:39:12;;;;;;;14.82;9.65;;;;;;;2.52;95.99;98469.94;5017195;28;20052;-83
2024/02/27 01:41:45;;;;;;;11.15;9.20;;;;;;;2.74;94.54;98444.97;5027720;28;20025;-83
2024/02/27 01:44:10;;;;;;;14.40;9.25;;;;;;;2.58;93.93;98435.69;5025132;28;20029;-82
2024/02/27 01:46:35;;;;;;;17.30;10.70;;;;;;;2.29;94.24;98430.91;5027327;28;20388;-83
2024/02/27 01:49:02;;;;;;;13.93;10.65;;;;;;;2.36;95.79;98468.56;5013190;28;20029;-82
2024/02/27 01:51:29;;;;;;;14.05;10.52;;;;;;;1.42;96.19;98304.16;5029309;28;20033;-82
2024/02/27 01:53:57;;;;;;;18.23;10.93;;;;;;;2.13;96.46;98442.69;5031435;28;20030;-83
2024/02/27 01:56:23;;;;;;;14.73;10.68;;;;;;;2.02;97.07;98456.47;5029597;28;20025;-82
2024/02/27 01:58:49;;;;;;;17.83;11.60;;;;;;;2.00;97.71;98476.09;5032680;28;20029;-83
2024/02/27 02:01:17;;;;;;;19.48;12.00;;;;;;;2.43;95.57;98485.16;5032917;28;20040;-83
2024/02/27 02:03:44;;;;;;;15.30;10.82;;;;;;;2.13;96.79;98494.50;5031453;28;20160;-83
2024/02/27 02:06:10;;;;;;;13.75;10.73;;;;;;;2.20;97.02;98488.25;5026501;28;20030;-83
2024/02/27 02:08:36;;;;;;;17.83;11.15;;;;;;;2.21;96.55;98502.19;5027032;28;20404;-82
2024/02/27 02:11:06;;;;;;;16.70;10.82;;;;;;;2.22;97.51;98486.22;5031686;28;20079;-83
2024/02/27 02:13:33;;;;;;;15.63;11.38;;;;;;;2.09;96.98;98488.03;5027188;28;20026;-82
2024/02/27 02:15:58;;;;;;;17.98;11.13;;;;;;;2.14;97.45;98488.25;5032195;28;20531;-83
2024/02/27 02:18:23;;;;;;;18.98;12.50;;;;;;;1.91;97.26;98464.97;5010255;28;20025;-83
2024/02/27 02:20:49;;;;;;;20.00;13.18;;;;;;;1.87;97.45;98478.72;5030780;28;20032;-81
2024/02/27 02:23:14;;;;;;;19.55;14.10;;;;;;;2.25;96.92;98498.13;5008750;28;20056;-83
2024/02/27 02:25:41;;;;;;;16.92;11.98;;;;;;;2.13;97.37;98492.69;5028263;28;20578;-83
2024/02/27 02:28:07;;;;;;;18.98;12.05;;;;;;;2.02;96.84;98509.09;5009960;28;20034;-83
2024/02/27 02:30:32;;;;;;;16.88;12.40;;;;;;;2.16;96.41;98510.69;5024479;28;20029;-83
2024/02/27 02:32:57;;;;;;;16.52;11.70;;;;;;;2.43;96.07;98474.63;5014196;28;20043;-83
2024/02/27 02:35:23;;;;;;;20.10;13.35;;;;;;;2.57;95.26;98515.75;5029727;28;20038;-83
2024/02/27 02:37:49;;;;;;;20.15;13.57;;;;;;;2.35;96.01;98517.00;4997717;28;20136;-83
2024/02/27 02:40:21;;;;;;;18.90;12.57;;;;;;;2.40;94.43;98522.47;5025970;28;20057;-82
2024/02/27 02:42:47;;;;;;;20.05;13.23;;;;;;;2.27;95.83;98511.94;5026540;28;20033;-82
2024/02/27 02:45:13;;;;;;;22.25;14.52;;;;;;;1.80;96.22;98493.69;5025894;28;20132;-83
2024/02/27 02:47:39;;;;;;;23.52;14.70;;;;;;;1.81;97.35;98496.16;5010436;28;20033;-83
2024/02/27 02:50:06;;;;;;;20.25;13.15;;;;;;;2.65;95.67;98523.41;5023026;28;20559;-83
2024/02/27 02:52:31;;;;;;;24.50;15.43;;;;;;;2.15;94.64;98487.22;5013583;28;20037;-83
2024/02/27 02:54:57;;;;;;;27.15;18.60;;;;;;;1.78;96.65;98504.44;5040913;28;20048;-83
2024/02/27 02:57:23;;;;;;;26.58;16.17;;;;;;;1.90;98.33;98512.53;5031093;28;20096;-83
2024/02/27 02:59:48;;;;;;;28.48;18.10;;;;;;;2.31;97.22;98536.03;5044950;28;20053;-83
2024/02/27 03:02:14;;;;;;;32.03;20.15;;;;;;;2.17;97.18;98527.31;5030745;28;20058;-83
2024/02/27 03:04:39;;;;;;;30.98;18.77;;;;;;;1.88;97.66;98515.34;5030342;28;20645;-84
2024/02/27 03:07:06;;;;;;;29.23;18.42;;;;;;;1.93;98.83;98515.56;5032953;28;20049;-84
2024/02/27 03:09:32;;;;;;;32.67;21.40;;;;;;;1.88;97.37;98499.56;5010381;28;20048;-83
2024/02/27 03:12:00;;;;;;;37.88;22.90;;;;;;;1.73;98.70;98519.16;5024730;28;20037;-83
2024/02/27 03:14:26;;;;;;;41.08;23.13;;;;;;;1.60;100.00;98508.63;5029965;28;20092;-83
2024/02/27 03:16:51;;;;;;;36.25;21.27;;;;;;;1.84;100.00;98516.78;5028977;28;20086;-83
2024/02/27 03:19:17;;;;;;;41.45;23.80;;;;;;;1.43;100.00;98493.25;5030678;28;20072;-83
2024/02/27 03:21:42;;;;;;;43.22;25.30;;;;;;;1.73;99.45;98484.97;5014334;28;20386;-83
2024/02/27 03:24:07;;;;;;;42.67;26.02;;;;;;;1.48;100.00;98487.38;5026383;28;20044;-83
2024/02/27 03:26:33;;;;;;;50.20;27.05;;;;;;;1.63;100.00;98516.94;5028626;28;20045;-83
2024/02/27 03:28:59;;;;;;;46.20;27.05;;;;;;;1.77;100.00;98521.22;5029773;28;20025;-84
2024/02/27 03:31:24;;;;;;;46.35;26.48;;;;;;;1.74;100.00;98516.38;5031454;28;20492;-83
2024/02/27 03:33:50;;;;;;;56.53;31.75;;;;;;;1.37;100.00;98493.22;5029785;28;20034;-83
2024/02/27 03:36:15;;;;;;;59.05;31.95;;;;;;;1.45;100.00;98524.59;5027688;28;20392;-83
2024/02/27 03:38:41;;;;;;;54.70;29.70;;;;;;;1.95;100.00;98533.78;5013340;28;20497;-83
2024/02/27 03:41:14;;;;;;;57.55;30.13;;;;;;;2.16;100.00;98538.88;5009995;28;20034;-83
2024/02/27 03:43:42;;;;;;;71.32;35.67;;;;;;;1.66;99.38;98529.69;5029067;28;20601;-82
2024/02/27 03:46:09;;;;;;;66.60;36.80;;;;;;;1.27;100.00;98506.72;5022648;28;20038;-81
2024/02/27 03:48:34;;;;;;;72.20;38.33;;;;;;;1.50;100.00;98548.47;5044681;28;20501;-83
2024/02/27 03:51:00;;;;;;;67.35;36.55;;;;;;;1.69;100.00;98539.00;5024132;28;20068;-83
2024/02/27 03:53:29;;;;;;;83.18;42.65;;;;;;;1.31;100.00;98528.19;5030246;28;20045;-83
2024/02/27 03:55:54;;;;;;;81.07;41.58;;;;;;;1.34;100.00;98525.16;5034094;28;20082;-83
2024/02/27 03:58:19;;;;;;;82.88;42.15;;;;;;;1.48;100.00;98535.53;5032974;28;20108;-83
2024/02/27 04:00:45;;;;;;;77.68;41.55;;;;;;;1.43;100.00;98545.00;5016555;28;20033;-83
2024/02/27 04:03:10;;;;;;;86.13;44.00;;;;;;;1.29;100.00;98536.25;5036230;28;20104;-83
2024/02/27 04:05:35;;;;;;;85.05;43.05;;;;;;;1.19;100.00;98529.75;5012186;28;20113;-83
2024/02/27 04:08:01;;;;;;;84.80;43.47;;;;;;;1.65;100.00;98558.81;5032751;28;20366;-83
2024/02/27 04:10:27;;;;;;;79.32;41.22;;;;;;;1.58;100.00;98539.59;5033833;28;20033;-83
2024/02/27 04:12:52;;;;;;;80.72;38.95;;;;;;;1.76;100.00;98556.44;5030354;28;20025;-83
2024/02/27 04:15:17;;;;;;;85.80;44.88;;;;;;;1.59;100.00;98570.97;5012677;28;20556;-83
2024/02/27 04:17:43;;;;;;;86.15;44.83;;;;;;;1.22;100.00;98560.91;5034188;28;20093;-83
2024/02/27 04:20:09;;;;;;;88.00;45.70;;;;;;;1.68;100.00;98555.81;4995116;28;20771;-83
2024/02/27 04:22:34;;;;;;;94.55;47.42;;;;;;;1.87;100.00;98581.34;5035247;28;20124;-83
2024/02/27 04:24:59;;;;;;;85.82;44.58;;;;;;;1.67;100.00;98531.31;5033215;28;20113;-84
2024/02/27 04:27:25;;;;;;;84.68;45.42;;;;;;;1.61;99.89;98587.34;5013883;28;20497;-82
2024/02/27 04:29:51;;;;;;;86.82;43.95;;;;;;;1.37;100.00;98535.28;5030919;28;20033;-83
2024/02/27 04:32:16;;;;;;;98.55;47.58;;;;;;;1.32;100.00;98572.69;4996794;28;20117;-82
2024/02/27 04:34:42;;;;;;;92.72;44.72;;;;;;;1.62;100.00;98602.09;5031567;28;20064;-83
2024/02/27 04:37:08;;;;;;;84.75;43.05;;;;;;;2.23;100.00;98592.31;5044255;28;20029;-83
2024/02/27 04:39:34;;;;;;;92.50;44.63;;;;;;;1.62;100.00;98557.41;5016118;28;20053;-83
2024/02/27 04:41:59;;;;;;;98.13;47.30;;;;;;;1.18;100.00;98560.47;5002349;28;20068;-83
2024/02/27 04:44:25;;;;;;;94.00;45.33;;;;;;;1.34;100.00;98578.56;5012936;28;20416;-83
2024/02/27 04:46:50;;;;;;;89.07;46.22;;;;;;;1.35;100.00;98597.78;5033553;28;20097;-83
2024/02/27 04:49:16;;;;;;;95.60;47.33;;;;;;;1.75;100.00;98598.72;5006341;28;20041;-83
2024/02/27 04:51:42;;;;;;;95.93;45.60;;;;;;;1.24;100.00;98596.53;5024581;28;20038;-83
2024/02/27 04:54:08;;;;;;;97.55;46.00;;;;;;;1.22;100.00;98601.13;4990226;28;20054;-84
2024/02/27 04:56:33;;;;;;;93.30;43.58;;;;;;;0.98;100.00;98592.94;5030746;28;20744;-81
2024/02/27 04:59:00;;;;;;;87.28;43.80;;;;;;;1.55;100.00;98593.41;5007929;28;20096;-83
2024/02/27 05:01:25;;;;;;;89.10;44.72;;;;;;;1.62;100.00;98586.31;4997023;28;20725;-83
2024/02/27 05:03:52;;;;;;;94.25;48.15;;;;;;;1.30;100.00;98595.72;5030609;28;20030;-83
2024/02/27 05:06:17;;;;;;;91.50;44.67;;;;;;;1.34;100.00;98609.28;5027716;28;20093;-84
2024/02/27 05:08:42;;;;;;;97.03;47.45;;;;;;;1.22;100.00;98624.78;5010133;28;20120;-84
2024/02/27 05:11:08;;;;;;;96.70;46.92;;;;;;;1.75;100.00;98615.31;5015514;28;20116;-87
2024/02/27 05:13:33;;;;;;;92.45;45.63;;;;;;;0.96;100.00;98566.84;5018878;28;20040;-87
2024/02/27 05:15:58;;;;;;;99.05;46.78;;;;;;;1.26;100.00;98593.69;5001011;28;20083;-88
2024/02/27 05:18:24;;;;;;;92.22;44.05;;;;;;;1.53;100.00;98619.88;5014062;28;20030;-86
2024/02/27 05:20:49;;;;;;;104.70;48.58;;;;;;;1.13;100.00;98601.50;5028457;28;20034;-86
2024/02/27 05:23:14;;;;;;;92.43;44.03;;;;;;;1.31;100.00;98635.97;4993862;28;20036;-85
2024/02/27 05:25:41;;;;;;;92.22;45.03;;;;;;;1.11;100.00;98633.25;5015622;28;20036;-86
2024/02/27 05:28:06;;;;;;;96.30;44.63;;;;;;;1.19;100.00;98640.97;4992761;28;20037;-85
2024/02/27 05:30:32;;;;;;;97.93;44.05;;;;;;;1.17;100.00;98636.91;5014115;28;20373;-85
2024/02/27 05:32:57;;;;;;;93.65;44.88;;;;;;;1.41;100.00;98639.88;5025975;28;20041;-85
2024/02/27 05:35:22;;;;;;;100.30;43.08;;;;;;;1.54;100.00;98652.25;5026642;28;20473;-85
2024/02/27 05:37:49;;;;;;;102.18;45.70;;;;;;;1.07;100.00;98616.22;5012462;28;20080;-85
2024/02/27 05:40:14;;;;;;;85.53;42.33;;;;;;;1.67;100.00;98656.75;5012859;28;20053;-85
2024/02/27 05:42:40;;;;;;;87.88;42.35;;;;;;;1.45;100.00;98662.13;5032171;28;20111;-84
2024/02/27 05:45:05;;;;;;;91.07;42.22;;;;;;;1.51;100.00;98637.69;5010318;28;20048;-85
2024/02/27 05:47:31;;;;;;;85.60;44.05;;;;;;;1.38;100.00;98642.88;5021984;28;20041;-86
2024/02/27 05:49:56;;;;;;;88.95;44.28;;;;;;;1.27;100.00;98659.19;5010915;28;20029;-85
2024/02/27 05:52:22;;;;;;;83.22;42.38;;;;;;;1.43;100.00;98643.13;5028264;28;20038;-87
2024/02/27 05:54:47;;;;;;;87.38;44.45;;;;;;;1.18;100.00;98644.59;5027516;28;20492;-83
2024/02/27 05:57:13;;;;;;;83.13;42.95;;;;;;;1.19;100.00;98663.81;5012497;28;20033;-84
2024/02/27 05:59:39;;;;;;;91.05;44.20;;;;;;;1.24;100.00;98674.56;5037429;28;20030;-84
2024/02/27 06:02:05;;;;;;;90.07;42.88;;;;;;;1.35;100.00;98666.94;5023467;28;20053;-83
2024/02/27 06:04:32;;;;;;;91.25;44.25;;;;;;;1.40;100.00;98664.53;5038894;28;20029;-84
2024/02/27 06:06:58;;;;;;;86.00;43.85;;;;;;;1.88;100.00;98690.84;5016606;28;20035;-85
2024/02/27 06:09:24;;;;;;;90.03;43.88;;;;;;;1.49;100.00;98699.34;5039658;28;20112;-85
2024/02/27 06:11:49;;;;;;;87.68;43.17;;;;;;;1.59;100.00;98680.59;5036328;28;20463;-85
2024/02/27 06:14:15;;;;;;;86.00;45.33;;;;;;;0.94;100.00;98694.94;5016972;28;20033;-84
2024/02/27 06:16:40;;;;;;;80.93;40.13;;;;;;;1.27;100.00;98701.25;5004345;28;20030;-86
2024/02/27 06:19:07;;;;;;;93.63;47.00;;;;;;;0.93;100.00;98684.66;5000806;28;20123;-85
2024/02/27 06:24:16;;;;;;;99.07;46.72;;;;;;;0.79;100.00;98681.09;5030107;28;20346;-85
2024/02/27 06:26:41;;;;;;;93.97;44.53;;;;;;;0.94;100.00;98710.72;5029122;28;20029;-85
2024/02/27 06:29:07;;;;;;;93.40;45.88;;;;;;;1.56;100.00;98712.53;5027102;28;20029;-85
2024/02/27 06:31:33;;;;;;;93.28;46.97;;;;;;;0.76;100.00;98681.50;5033498;28;20029;-85
2024/02/27 06:33:59;;;;;;;90.60;43.30;;;;;;;0.90;100.00;98709.47;5013675;28;20037;-85
2024/02/27 06:36:25;;;;;;;88.80;43.20;;;;;;;0.81;100.00;98721.13;5038717;28;20025;-85
2024/02/27 06:38:51;;;;;;;98.80;44.50;;;;;;;0.92;100.00;98720.59;5036828;28;20036;-86
2024/02/27 06:41:16;;;;;;;96.25;45.95;;;;;;;0.93;100.00;98719.63;5033125;28;20045;-84
2024/02/27 06:43:41;;;;;;;91.03;45.95;;;;;;;0.82;100.00;98711.44;5035680;28;20401;-85
2024/02/27 06:46:10;;;;;;;89.35;45.72;;;;;;;0.88;100.00;98727.25;5019039;28;20508;-86
2024/02/27 06:48:39;;;;;;;94.40;46.60;;;;;;;0.89;100.00;98734.13;5019752;28;20084;-85
2024/02/27 06:51:06;;;;;;;86.10;47.10;;;;;;;0.91;100.00;98715.56;5020471;28;20068;-85
2024/02/27 06:53:33;;;;;;;99.15;49.03;;;;;;;1.27;100.00;98716.22;5038114;28;20029;-86
2024/02/27 06:55:58;;;;;;;94.28;46.53;;;;;;;1.42;100.00;98709.06;5035926;28;20022;-85
2024/02/27 06:58:23;;;;;;;85.97;43.47;;;;;;;0.97;100.00;98693.75;5017579;28;20083;-85
2024/02/27 07:00:49;;;;;;;94.75;43.97;;;;;;;1.43;100.00;98732.50;5033939;28;20030;-86
2024/02/27 07:03:14;;;;;;;85.25;41.50;;;;;;;0.78;100.00;98626.97;5029815;28;20029;-85
2024/02/27 07:05:40;;;;;;;94.85;43.90;;;;;;;1.41;100.00;98749.47;5031024;28;20037;-84
2024/02/27 07:08:06;;;;;;;82.65;41.50;;;;;;;1.45;100.00;98742.81;5036959;28;20041;-85
2024/02/27 07:10:32;;;;;;;95.45;47.35;;;;;;;1.47;99.57;98712.72;5038102;28;20034;-85
2024/02/27 07:12:57;;;;;;;89.70;44.97;;;;;;;1.22;99.34;98729.94;5003600;28;20029;-86
2024/02/27 07:15:23;;;;;;;92.97;45.80;;;;;;;1.48;100.00;98759.06;5017716;28;20035;-85
2024/02/27 07:17:48;;;;;;;85.65;43.97;;;;;;;1.21;100.00;98754.59;5027853;28;20041;-85
2024/02/27 07:20:14;;;;;;;86.53;41.88;;;;;;;1.52;100.00;98751.56;5034874;28;20025;-85
2024/02/27 07:22:39;;;;;;;79.97;39.58;;;;;;;1.98;97.29;98757.91;5044486;28;20029;-85
2024/02/27 07:25:05;;;;;;;76.80;37.30;;;;;;;1.10;98.16;98763.00;5016549;28;20088;-85
2024/02/27 07:27:31;;;;;;;91.95;45.83;;;;;;;1.05;99.89;98728.59;5013886;28;20056;-84
2024/02/27 07:29:56;;;;;;;89.90;42.58;;;;;;;1.16;100.00;98770.13;5016212;28;20042;-85
2024/02/27 07:32:21;;;;;;;91.35;41.85;;;;;;;2.11;100.00;98783.47;5039075;28;20038;-85
2024/02/27 07:34:47;;;;;;;77.00;39.50;;;;;;;1.01;99.54;98774.66;5022021;28;20038;-84
2024/02/27 07:37:14;;;;;;;74.60;38.65;;;;;;;0.86;100.00;98778.34;5038733;28;20029;-85
2024/02/27 07:39:39;;;;;;;85.35;37.65;;;;;;;0.94;100.00;98779.03;5037442;28;20037;-84
2024/02/27 07:42:05;;;;;;;76.70;37.63;;;;;;;1.22;100.00;98776.44;5023940;28;20037;-84
2024/02/27 07:44:31;;;;;;;81.80;39.95;;;;;;;1.27;100.00;98784.56;5036471;28;20124;-85
2024/02/27 07:46:56;;;;;;;81.53;39.85;;;;;;;1.20;100.00;98721.41;5037637;28;20049;-85
2024/02/27 07:49:22;;;;;;;81.90;38.42;;;;;;;1.60;100.00;98779.53;5031827;28;20033;-85
2024/02/27 07:51:48;;;;;;;78.28;40.20;;;;;;;1.33;100.00;98789.06;5037216;28;20030;-85
2024/02/27 07:54:17;;;;;;;78.18;39.28;;;;;;;1.12;100.00;98703.19;5045983;28;20131;-86
2024/02/27 07:56:43;;;;;;;88.93;39.35;;;;;;;1.53;98.91;98737.41;5034967;28;20026;-86
2024/02/27 07:59:12;;;;;;;79.13;38.50;;;;;;;1.24;100.00;98745.53;5036784;28;20022;-84
2024/02/27 08:01:38;;;;;;;73.75;35.58;;;;;;;1.24;100.00;98767.38;5039680;28;20041;-85
2024/02/27 08:04:04;;;;;;;78.22;39.42;;;;;;;1.22;100.00;98755.44;5038610;28;20036;-85
2024/02/27 08:06:30;;;;;;;81.47;39.38;;;;;;;1.40;100.00;98780.22;5044197;28;20009;-83
2024/02/27 08:08:55;;;;;;;71.18;33.92;;;;;;;1.73;100.00;98780.44;5053298;28;20017;-85
2024/02/27 08:11:22;;;;;;;78.35;36.22;;;;;;;1.67;100.00;98789.09;5063090;28;20032;-86
2024/02/27 08:13:47;;;;;;;81.13;40.50;;;;;;;1.14;100.00;98743.22;5026933;28;20041;-86
2024/02/27 08:16:13;;;;;;;77.03;37.28;;;;;;;1.72;100.00;98789.34;5035149;28;20121;-85
2024/02/27 08:18:38;;;;;;;73.22;35.08;;;;;;;1.61;100.00;98781.16;5043041;28;20033;-85
2024/02/27 08:21:04;;;;;;;76.03;36.42;;;;;;;1.94;100.00;98790.88;5053872;28;20027;-85
2024/02/27 08:23:30;;;;;;;68.43;35.00;;;;;;;1.92;99.72;98763.13;5041593;28;20092;-86
2024/02/27 08:25:56;;;;;;;81.18;38.25;;;;;;;2.24;98.54;98804.56;5017770;28;20032;-85
2024/02/27 08:28:22;;;;;;;78.32;38.42;;;;;;;1.98;97.34;98793.94;5044730;28;20036;-86
2024/02/27 08:30:48;;;;;;;72.97;35.63;;;;;;;1.57;97.35;98772.03;5038016;28;20071;-87
2024/02/27 08:33:13;;;;;;;75.15;36.95;;;;;;;1.91;99.51;98803.59;5017702;28;20037;-86
2024/02/27 08:35:39;;;;;;;82.57;37.80;;;;;;;1.72;98.75;98809.56;5030495;28;20067;-85
2024/02/27 08:38:04;;;;;;;77.10;36.00;;;;;;;1.78;99.27;98816.69;5041094;28;20052;-85
2024/02/27 08:40:31;;;;;;;68.25;35.05;;;;;;;1.76;99.52;98814.25;5038861;28;20055;-84
2024/02/27 08:42:57;;;;;;;76.50;37.08;;;;;;;1.22;98.68;98773.81;5023407;28;20057;-86
2024/02/27 08:45:22;;;;;;;71.05;35.47;;;;;;;1.71;99.64;98792.16;5048456;28;20032;-86
2024/02/27 08:47:50;;;;;;;78.30;36.72;;;;;;;2.47;97.57;98826.13;5052708;28;20079;-86
2024/02/27 08:50:16;;;;;;;71.53;34.42;;;;;;;2.65;96.81;98813.22;5035643;28;20038;-86
2024/02/27 08:52:41;;;;;;;70.75;34.08;;;;;;;2.45;94.89;98833.41;5037684;28;20119;-83
2024/02/27 08:55:07;;;;;;;65.90;31.98;;;;;;;2.58;95.57;98807.13;5036926;28;20317;-84
2024/02/27 08:57:33;;;;;;;64.60;32.22;;;;;;;2.23;95.20;98813.47;5036578;28;20090;-84
2024/02/27 08:59:59;;;;;;;60.70;30.98;;;;;;;2.60;94.17;98815.63;5034763;28;20469;-84
2024/02/27 09:02:25;;;;;;;68.68;34.50;;;;;;;3.04;94.01;98818.56;5033108;28;20079;-84
2024/02/27 09:04:51;;;;;;;70.70;34.40;;;;;;;2.37;94.19;98830.97;5010697;28;20030;-84
2024/02/27 09:07:16;;;;;;;63.63;30.90;;;;;;;2.86;93.28;98825.44;5034854;28;20021;-84
2024/02/27 09:09:45;;;;;;;61.15;29.45;;;;;;;2.69;94.60;98821.53;5034918;28;20089;-83
2024/02/27 09:12:12;;;;;;;64.03;31.95;;;;;;;2.71;94.28;98801.88;5038739;28;20199;-83
2024/02/27 09:14:37;;;;;;;64.97;30.80;;;;;;;1.76;95.45;98834.47;5054190;28;20037;-82
2024/02/27 09:17:03;;;;;;;64.93;32.70;;;;;;;1.87;95.77;98837.41;5019550;28;20512;-82
2024/02/27 09:19:29;;;;;;;69.05;33.25;;;;;;;1.91;97.22;98825.47;5040729;28;20055;-81
2024/02/27 09:21:55;;;;;;;69.70;31.90;;;;;;;1.79;97.64;98827.00;5030711;28;20105;-82
2024/02/27 09:24:21;;;;;;;55.88;29.17;;;;;;;2.43;95.57;98821.44;5016412;28;20033;-82
2024/02/27 09:26:46;;;;;;;65.15;30.10;;;;;;;3.22;93.33;98798.72;5031221;28;20056;-83
2024/02/27 09:29:12;;;;;;;53.65;25.83;;;;;;;2.37;92.79;98788.00;5003322;28;20026;-82
2024/02/27 09:31:37;;;;;;;54.83;27.15;;;;;;;2.52;94.69;98818.47;5020223;28;20034;-83
2024/02/27 09:34:03;;;;;;;55.15;27.15;;;;;;;2.06;94.85;98815.63;5033672;28;20049;-83
2024/02/27 09:36:29;;;;;;;61.90;29.05;;;;;;;1.90;96.46;98837.00;5033112;28;20026;-82
2024/02/27 09:38:54;;;;;;;54.25;25.90;;;;;;;2.24;95.73;98809.84;5041853;28;20095;-82
2024/02/27 09:41:35;;;;;;;58.35;27.15;;;;;;;2.40;94.18;98816.59;5037480;28;20025;-83
2024/02/27 09:44:01;;;;;;;57.63;25.35;;;;;;;2.63;93.95;98815.25;5027478;28;20470;-83
2024/02/27 09:46:28;;;;;;;50.25;24.08;;;;;;;2.75;91.75;98818.91;5025217;28;20095;-83
2024/02/27 09:48:59;;;;;;;57.35;25.23;;;;;;;2.69;93.90;98832.91;5042636;28;20021;-82
2024/02/27 09:51:27;;;;;;;54.15;26.30;;;;;;;2.26;94.14;98818.34;5028980;28;20041;-82
2024/02/27 09:53:57;;;;;;;48.00;23.80;;;;;;;2.61;94.17;98840.16;5029249;28;20064;-81
2024/02/27 09:56:24;;;;;;;48.88;23.75;;;;;;;1.99;94.76;98783.19;5027220;28;20029;-83
2024/02/27 09:58:50;;;;;;;55.53;25.95;;;;;;;1.99;95.95;98829.75;5030398;28;20125;-83
2024/02/27 10:01:18;;;;;;;50.65;25.17;;;;;;;2.06;96.45;98773.53;5027248;28;20045;-81
2024/02/27 10:03:46;;;;;;;49.97;25.20;;;;;;;1.88;96.54;98812.69;5018471;28;20135;-83
2024/02/27 10:06:15;;;;;;;48.40;22.50;;;;;;;2.23;96.47;98771.34;5013481;28;20033;-82
2024/02/27 10:08:46;;;;;;;55.50;26.30;;;;;;;2.37;93.47;98809.91;5034196;28;20385;-82
2024/02/27 10:11:13;;;;;;;50.10;26.65;;;;;;;2.52;94.03;98825.53;5033576;28;20022;-82
2024/02/27 10:13:38;;;;;;;47.05;23.70;;;;;;;2.59;93.10;98814.03;5033784;28;20049;-82
2024/02/27 10:16:04;;;;;;;50.75;24.50;;;;;;;2.78;92.85;98823.81;5000664;28;20033;-83
2024/02/27 10:18:31;;;;;;;50.17;22.90;;;;;;;2.78;92.83;98797.44;5033848;28;20035;-83
2024/02/27 10:20:56;;;;;;;46.15;23.58;;;;;;;2.99;91.63;98836.81;5036769;28;20029;-83
2024/02/27 10:23:22;;;;;;;42.42;20.85;;;;;;;3.68;91.32;98824.06;5031826;28;20048;-83
2024/02/27 10:25:48;;;;;;;48.88;23.33;;;;;;;3.71;90.02;98847.41;5036538;28;20624;-84
2024/02/27 10:28:17;;;;;;;42.90;20.90;;;;;;;4.00;87.57;98834.78;5034185;28;20025;-83
2024/02/27 10:30:43;;;;;;;38.20;21.70;;;;;;;3.49;87.82;98835.47;5001001;28;20030;-82
2024/02/27 10:33:13;;;;;;;45.95;23.80;;;;;;;2.96;90.70;98833.78;5037501;28;20040;-83
2024/02/27 10:35:39;;;;;;;47.47;21.75;;;;;;;2.57;90.54;98852.13;5021317;28;20036;-82
2024/02/27 10:38:21;;;;;;;44.45;21.63;;;;;;;3.12;90.84;98861.59;5034890;28;20029;-82
2024/02/27 10:40:47;;;;;;;39.88;20.15;;;;;;;2.51;92.17;98850.28;5035377;28;20060;-83
2024/02/27 10:43:13;;;;;;;38.47;20.25;;;;;;;2.46;93.00;98831.59;5037615;28;20052;-83
2024/02/27 10:45:40;;;;;;;38.40;19.67;;;;;;;3.73;90.77;98863.03;5013852;28;20044;-82
2024/02/27 10:48:07;;;;;;;41.72;20.58;;;;;;;3.02;89.90;98825.06;5030167;28;20036;-83
2024/02/27 10:50:33;;;;;;;38.35;19.67;;;;;;;3.25;89.54;98864.25;5046412;28;20032;-83
2024/02/27 10:53:04;;;;;;;34.35;19.95;;;;;;;3.43;89.12;98846.78;5015156;28;20034;-83
2024/02/27 10:55:30;;;;;;;34.63;19.15;;;;;;;3.43;89.76;98860.00;5031441;28;20417;-83
2024/02/27 10:57:59;;;;;;;39.33;23.00;;;;;;;3.18;89.94;98852.88;5012879;28;20045;-83
2024/02/27 11:00:28;;;;;;;33.92;18.42;;;;;;;3.74;88.95;98856.72;5032385;28;20034;-83
2024/02/27 11:02:59;;;;;;;31.95;17.55;;;;;;;4.03;88.28;98850.19;5033676;28;20709;-83
2024/02/27 11:05:31;;;;;;;40.72;19.02;;;;;;;3.94;86.99;98851.44;5036825;28;20033;-83
2024/02/27 11:08:00;;;;;;;36.72;18.85;;;;;;;3.71;87.89;98859.81;5009139;28;20481;-82
2024/02/27 11:10:29;;;;;;;36.38;18.08;;;;;;;3.38;88.70;98875.63;5015879;28;20474;-83
2024/02/27 11:12:55;;;;;;;35.78;19.83;;;;;;;2.79;89.33;98820.16;5018787;28;20025;-86
2024/02/27 11:15:21;;;;;;;40.58;20.38;;;;;;;3.06;89.87;98879.00;5047760;28;20121;-87
2024/02/27 11:17:53;;;;;;;38.67;20.77;;;;;;;2.28;90.85;98809.25;4997766;28;20120;-86
2024/02/27 11:20:20;;;;;;;41.38;20.15;;;;;;;3.23;90.83;98856.53;5033722;28;20109;-87
2024/02/27 11:22:46;;;;;;;40.95;20.67;;;;;;;2.67;90.32;98827.00;5026565;28;20029;-84